sensor_id;sensor_type;location;lat;lon;timestamp;P1;durP1;ratioP1;P2;durP2;ratioP2
69305;SDS011;56427;51.580;4.656;2023-02-26T00:01:34;10.10;;;3.08;;
69305;SDS011;56427;51.580;4.656;2023-02-26T00:04:01;12.03;;;3.47;;
69305;SDS011;56427;51.580;4.656;2023-02-26T00:06:30;11.27;;;3.10;;
69305;SDS011;56427;51.580;4.656;2023-02-26T00:09:00;12.88;;;3.25;;
69305;SDS011;56427;51.580;4.656;2023-02-26T00:11:27;11.52;;;3.55;;
69305;SDS011;56427;51.580;4.656;2023-02-26T00:13:53;10.53;;;3.20;;
69305;SDS011;56427;51.580;4.656;2023-02-26T00:16:32;9.73;;;2.95;;
69305;SDS011;56427;51.580;4.656;2023-02-26T00:19:01;13.40;;;2.50;;
69305;SDS011;56427;51.580;4.656;2023-02-26T00:21:29;9.95;;;2.63;;
69305;SDS011;56427;51.580;4.656;2023-02-26T00:23:55;7.20;;;2.47;;
69305;SDS011;56427;51.580;4.656;2023-02-26T00:26:22;13.05;;;2.97;;
69305;SDS011;56427;51.580;4.656;2023-02-26T00:28:49;10.38;;;2.83;;
69305;SDS011;56427;51.580;4.656;2023-02-26T00:31:15;9.75;;;2.95;;
69305;SDS011;56427;51.580;4.656;2023-02-26T00:33:42;9.77;;;2.47;;
69305;SDS011;56427;51.580;4.656;2023-02-26T00:36:18;10.63;;;2.27;;
69305;SDS011;56427;51.580;4.656;2023-02-26T00:38:50;11.02;;;2.67;;
69305;SDS011;56427;51.580;4.656;2023-02-26T00:41:25;9.10;;;2.80;;
69305;SDS011;56427;51.580;4.656;2023-02-26T00:43:51;9.98;;;2.30;;
69305;SDS011;56427;51.580;4.656;2023-02-26T00:51:47;9.93;;;1.90;;
69305;SDS011;56427;51.580;4.656;2023-02-26T00:54:19;8.55;;;2.05;;
69305;SDS011;56427;51.580;4.656;2023-02-26T00:56:47;10.63;;;2.05;;
69305;SDS011;56427;51.580;4.656;2023-02-26T00:59:14;7.20;;;2.10;;
69305;SDS011;56427;51.580;4.656;2023-02-26T01:01:41;7.68;;;2.28;;
69305;SDS011;56427;51.580;4.656;2023-02-26T01:04:06;9.43;;;2.07;;
69305;SDS011;56427;51.580;4.656;2023-02-26T01:06:33;12.43;;;1.90;;
69305;SDS011;56427;51.580;4.656;2023-02-26T01:09:21;8.52;;;2.05;;
69305;SDS011;56427;51.580;4.656;2023-02-26T01:11:51;6.40;;;1.85;;
69305;SDS011;56427;51.580;4.656;2023-02-26T01:14:22;8.05;;;2.10;;
69305;SDS011;56427;51.580;4.656;2023-02-26T01:16:54;7.37;;;1.90;;
69305;SDS011;56427;51.580;4.656;2023-02-26T01:22:14;7.50;;;1.92;;
69305;SDS011;56427;51.580;4.656;2023-02-26T01:24:45;7.43;;;1.67;;
69305;SDS011;56427;51.580;4.656;2023-02-26T01:27:12;7.65;;;1.73;;
69305;SDS011;56427;51.580;4.656;2023-02-26T01:29:37;7.37;;;1.60;;
69305;SDS011;56427;51.580;4.656;2023-02-26T01:32:05;5.70;;;1.70;;
69305;SDS011;56427;51.580;4.656;2023-02-26T01:34:41;9.60;;;1.98;;
69305;SDS011;56427;51.580;4.656;2023-02-26T01:37:20;10.02;;;2.40;;
69305;SDS011;56427;51.580;4.656;2023-02-26T01:39:59;11.50;;;2.10;;
69305;SDS011;56427;51.580;4.656;2023-02-26T01:42:39;7.40;;;1.83;;
69305;SDS011;56427;51.580;4.656;2023-02-26T01:45:10;8.43;;;1.85;;
69305;SDS011;56427;51.580;4.656;2023-02-26T01:47:44;5.28;;;1.42;;
69305;SDS011;56427;51.580;4.656;2023-02-26T01:50:17;3.80;;;1.52;;
69305;SDS011;56427;51.580;4.656;2023-02-26T01:55:16;6.17;;;1.57;;
69305;SDS011;56427;51.580;4.656;2023-02-26T01:57:44;4.05;;;1.25;;
69305;SDS011;56427;51.580;4.656;2023-02-26T02:00:11;5.30;;;1.40;;
69305;SDS011;56427;51.580;4.656;2023-02-26T02:02:37;7.15;;;1.33;;
69305;SDS011;56427;51.580;4.656;2023-02-26T02:05:03;10.03;;;1.57;;
69305;SDS011;56427;51.580;4.656;2023-02-26T02:07:36;2.70;;;1.10;;
69305;SDS011;56427;51.580;4.656;2023-02-26T02:10:01;2.90;;;1.30;;
69305;SDS011;56427;51.580;4.656;2023-02-26T02:23:49;5.22;;;1.48;;
69305;SDS011;56427;51.580;4.656;2023-02-26T02:36:58;5.25;;;1.50;;
69305;SDS011;56427;51.580;4.656;2023-02-26T02:39:35;10.25;;;1.50;;
69305;SDS011;56427;51.580;4.656;2023-02-26T02:42:07;5.78;;;1.10;;
69305;SDS011;56427;51.580;4.656;2023-02-26T02:44:57;10.57;;;1.23;;
69305;SDS011;56427;51.580;4.656;2023-02-26T02:47:27;5.30;;;1.17;;
69305;SDS011;56427;51.580;4.656;2023-02-26T02:50:06;5.95;;;1.10;;
69305;SDS011;56427;51.580;4.656;2023-02-26T02:55:13;4.23;;;1.10;;
69305;SDS011;56427;51.580;4.656;2023-02-26T02:57:48;12.75;;;1.58;;
69305;SDS011;56427;51.580;4.656;2023-02-26T03:00:20;7.03;;;1.17;;
69305;SDS011;56427;51.580;4.656;2023-02-26T03:05:16;5.22;;;1.00;;
69305;SDS011;56427;51.580;4.656;2023-02-26T03:07:44;5.63;;;1.08;;
69305;SDS011;56427;51.580;4.656;2023-02-26T03:10:14;4.95;;;1.00;;
69305;SDS011;56427;51.580;4.656;2023-02-26T03:12:40;5.33;;;1.10;;
69305;SDS011;56427;51.580;4.656;2023-02-26T03:15:06;4.32;;;1.00;;
69305;SDS011;56427;51.580;4.656;2023-02-26T03:22:57;5.20;;;1.10;;
69305;SDS011;56427;51.580;4.656;2023-02-26T03:26:39;6.47;;;1.02;;
69305;SDS011;56427;51.580;4.656;2023-02-26T03:28:53;7.97;;;1.10;;
69305;SDS011;56427;51.580;4.656;2023-02-26T03:31:28;6.72;;;1.10;;
69305;SDS011;56427;51.580;4.656;2023-02-26T03:34:01;10.40;;;1.50;;
69305;SDS011;56427;51.580;4.656;2023-02-26T03:36:34;6.22;;;1.05;;
69305;SDS011;56427;51.580;4.656;2023-02-26T03:39:17;4.85;;;1.00;;
69305;SDS011;56427;51.580;4.656;2023-02-26T03:41:52;4.43;;;0.73;;
69305;SDS011;56427;51.580;4.656;2023-02-26T03:44:32;5.95;;;0.90;;
69305;SDS011;56427;51.580;4.656;2023-02-26T03:47:04;6.93;;;0.93;;
69305;SDS011;56427;51.580;4.656;2023-02-26T03:49:35;2.50;;;0.60;;
69305;SDS011;56427;51.580;4.656;2023-02-26T03:52:23;3.95;;;0.90;;
69305;SDS011;56427;51.580;4.656;2023-02-26T03:55:02;4.23;;;0.77;;
69305;SDS011;56427;51.580;4.656;2023-02-26T03:57:33;4.55;;;0.80;;
69305;SDS011;56427;51.580;4.656;2023-02-26T03:59:58;9.05;;;1.20;;
69305;SDS011;56427;51.580;4.656;2023-02-26T04:02:29;8.30;;;1.20;;
69305;SDS011;56427;51.580;4.656;2023-02-26T04:05:07;7.55;;;1.10;;
69305;SDS011;56427;51.580;4.656;2023-02-26T04:07:38;6.57;;;0.90;;
69305;SDS011;56427;51.580;4.656;2023-02-26T04:10:04;4.37;;;1.23;;
69305;SDS011;56427;51.580;4.656;2023-02-26T04:12:30;4.82;;;0.90;;
69305;SDS011;56427;51.580;4.656;2023-02-26T04:14:56;7.00;;;1.40;;
69305;SDS011;56427;51.580;4.656;2023-02-26T04:17:22;4.82;;;1.15;;
69305;SDS011;56427;51.580;4.656;2023-02-26T04:19:48;3.70;;;0.80;;
69305;SDS011;56427;51.580;4.656;2023-02-26T04:22:13;4.20;;;0.73;;
69305;SDS011;56427;51.580;4.656;2023-02-26T04:24:39;2.60;;;0.73;;
69305;SDS011;56427;51.580;4.656;2023-02-26T04:27:04;13.00;;;1.70;;
69305;SDS011;56427;51.580;4.656;2023-02-26T04:29:30;4.43;;;1.30;;
69305;SDS011;56427;51.580;4.656;2023-02-26T04:31:55;3.80;;;0.70;;
69305;SDS011;56427;51.580;4.656;2023-02-26T04:34:20;6.60;;;1.00;;
69305;SDS011;56427;51.580;4.656;2023-02-26T04:36:46;3.97;;;1.00;;
69305;SDS011;56427;51.580;4.656;2023-02-26T04:39:11;2.47;;;0.70;;
69305;SDS011;56427;51.580;4.656;2023-02-26T04:41:37;3.97;;;0.83;;
69305;SDS011;56427;51.580;4.656;2023-02-26T04:44:03;8.43;;;0.98;;
69305;SDS011;56427;51.580;4.656;2023-02-26T04:46:29;2.42;;;0.80;;
69305;SDS011;56427;51.580;4.656;2023-02-26T04:48:54;7.37;;;0.90;;
69305;SDS011;56427;51.580;4.656;2023-02-26T04:51:20;6.88;;;1.10;;
69305;SDS011;56427;51.580;4.656;2023-02-26T04:53:48;6.87;;;1.30;;
69305;SDS011;56427;51.580;4.656;2023-02-26T04:56:14;4.47;;;1.03;;
69305;SDS011;56427;51.580;4.656;2023-02-26T04:58:39;7.13;;;1.40;;
69305;SDS011;56427;51.580;4.656;2023-02-26T05:01:04;4.87;;;0.77;;
69305;SDS011;56427;51.580;4.656;2023-02-26T05:03:30;7.17;;;1.47;;
69305;SDS011;56427;51.580;4.656;2023-02-26T05:05:55;5.47;;;0.77;;
69305;SDS011;56427;51.580;4.656;2023-02-26T05:08:21;2.95;;;0.82;;
69305;SDS011;56427;51.580;4.656;2023-02-26T05:10:46;13.37;;;1.43;;
69305;SDS011;56427;51.580;4.656;2023-02-26T05:13:13;3.53;;;0.70;;
69305;SDS011;56427;51.580;4.656;2023-02-26T05:15:38;7.73;;;1.40;;
69305;SDS011;56427;51.580;4.656;2023-02-26T05:18:03;2.97;;;0.80;;
69305;SDS011;56427;51.580;4.656;2023-02-26T05:20:29;2.50;;;0.97;;
69305;SDS011;56427;51.580;4.656;2023-02-26T05:22:54;7.60;;;1.53;;
69305;SDS011;56427;51.580;4.656;2023-02-26T05:25:19;4.07;;;0.60;;
69305;SDS011;56427;51.580;4.656;2023-02-26T05:27:45;4.32;;;0.90;;
69305;SDS011;56427;51.580;4.656;2023-02-26T05:30:12;3.90;;;0.60;;
69305;SDS011;56427;51.580;4.656;2023-02-26T05:32:39;3.38;;;0.88;;
69305;SDS011;56427;51.580;4.656;2023-02-26T05:35:05;5.10;;;0.67;;
69305;SDS011;56427;51.580;4.656;2023-02-26T05:37:30;5.72;;;1.10;;
69305;SDS011;56427;51.580;4.656;2023-02-26T05:39:56;7.73;;;1.27;;
69305;SDS011;56427;51.580;4.656;2023-02-26T05:42:21;3.73;;;1.10;;
69305;SDS011;56427;51.580;4.656;2023-02-26T05:44:46;5.33;;;1.00;;
69305;SDS011;56427;51.580;4.656;2023-02-26T05:47:12;2.67;;;0.80;;
69305;SDS011;56427;51.580;4.656;2023-02-26T05:49:37;4.87;;;1.03;;
69305;SDS011;56427;51.580;4.656;2023-02-26T05:52:02;4.93;;;0.83;;
69305;SDS011;56427;51.580;4.656;2023-02-26T05:54:28;4.65;;;0.85;;
69305;SDS011;56427;51.580;4.656;2023-02-26T05:56:54;2.70;;;1.10;;
69305;SDS011;56427;51.580;4.656;2023-02-26T05:59:20;4.22;;;0.70;;
69305;SDS011;56427;51.580;4.656;2023-02-26T06:01:45;4.00;;;0.87;;
69305;SDS011;56427;51.580;4.656;2023-02-26T06:04:11;4.17;;;1.10;;
69305;SDS011;56427;51.580;4.656;2023-02-26T06:06:36;2.78;;;0.80;;
69305;SDS011;56427;51.580;4.656;2023-02-26T06:09:01;1.95;;;0.60;;
69305;SDS011;56427;51.580;4.656;2023-02-26T06:11:27;4.80;;;1.00;;
69305;SDS011;56427;51.580;4.656;2023-02-26T06:13:53;3.13;;;0.50;;
69305;SDS011;56427;51.580;4.656;2023-02-26T06:16:19;6.55;;;0.93;;
69305;SDS011;56427;51.580;4.656;2023-02-26T06:18:45;3.30;;;0.90;;
69305;SDS011;56427;51.580;4.656;2023-02-26T06:21:11;4.63;;;0.95;;
69305;SDS011;56427;51.580;4.656;2023-02-26T06:23:37;6.63;;;0.93;;
69305;SDS011;56427;51.580;4.656;2023-02-26T06:26:02;5.23;;;1.40;;
69305;SDS011;56427;51.580;4.656;2023-02-26T06:28:28;8.20;;;1.13;;
69305;SDS011;56427;51.580;4.656;2023-02-26T06:30:54;5.33;;;1.20;;
69305;SDS011;56427;51.580;4.656;2023-02-26T06:33:22;5.93;;;0.80;;
69305;SDS011;56427;51.580;4.656;2023-02-26T06:35:50;3.97;;;1.00;;
69305;SDS011;56427;51.580;4.656;2023-02-26T06:38:16;5.40;;;1.03;;
69305;SDS011;56427;51.580;4.656;2023-02-26T06:40:42;4.05;;;0.88;;
69305;SDS011;56427;51.580;4.656;2023-02-26T06:43:07;4.90;;;1.13;;
69305;SDS011;56427;51.580;4.656;2023-02-26T06:45:32;3.50;;;1.07;;
69305;SDS011;56427;51.580;4.656;2023-02-26T06:47:58;7.03;;;1.00;;
69305;SDS011;56427;51.580;4.656;2023-02-26T06:50:23;5.37;;;1.03;;
69305;SDS011;56427;51.580;4.656;2023-02-26T06:52:49;6.67;;;1.10;;
69305;SDS011;56427;51.580;4.656;2023-02-26T06:55:15;3.97;;;1.00;;
69305;SDS011;56427;51.580;4.656;2023-02-26T06:57:40;4.13;;;0.93;;
69305;SDS011;56427;51.580;4.656;2023-02-26T07:00:06;5.00;;;1.00;;
69305;SDS011;56427;51.580;4.656;2023-02-26T07:02:34;4.45;;;0.93;;
69305;SDS011;56427;51.580;4.656;2023-02-26T07:04:59;3.50;;;0.60;;
69305;SDS011;56427;51.580;4.656;2023-02-26T07:07:25;3.63;;;0.90;;
69305;SDS011;56427;51.580;4.656;2023-02-26T07:09:53;4.13;;;0.73;;
69305;SDS011;56427;51.580;4.656;2023-02-26T07:12:18;3.07;;;0.90;;
69305;SDS011;56427;51.580;4.656;2023-02-26T07:14:44;5.95;;;1.10;;
69305;SDS011;56427;51.580;4.656;2023-02-26T07:17:10;7.53;;;1.10;;
69305;SDS011;56427;51.580;4.656;2023-02-26T07:19:44;3.83;;;0.90;;
69305;SDS011;56427;51.580;4.656;2023-02-26T07:22:13;3.50;;;0.95;;
69305;SDS011;56427;51.580;4.656;2023-02-26T07:24:39;4.47;;;1.10;;
69305;SDS011;56427;51.580;4.656;2023-02-26T07:27:05;7.80;;;1.80;;
69305;SDS011;56427;51.580;4.656;2023-02-26T07:29:34;7.40;;;1.00;;
69305;SDS011;56427;51.580;4.656;2023-02-26T07:32:00;3.80;;;0.90;;
69305;SDS011;56427;51.580;4.656;2023-02-26T07:34:25;3.67;;;1.17;;
69305;SDS011;56427;51.580;4.656;2023-02-26T07:36:50;6.63;;;1.30;;
69305;SDS011;56427;51.580;4.656;2023-02-26T07:39:16;3.22;;;1.15;;
69305;SDS011;56427;51.580;4.656;2023-02-26T07:41:41;3.60;;;0.90;;
69305;SDS011;56427;51.580;4.656;2023-02-26T07:44:07;3.17;;;0.83;;
69305;SDS011;56427;51.580;4.656;2023-02-26T07:46:32;5.00;;;0.93;;
69305;SDS011;56427;51.580;4.656;2023-02-26T07:48:58;4.95;;;0.90;;
69305;SDS011;56427;51.580;4.656;2023-02-26T07:51:29;2.87;;;0.50;;
69305;SDS011;56427;51.580;4.656;2023-02-26T07:53:54;2.50;;;0.73;;
69305;SDS011;56427;51.580;4.656;2023-02-26T07:56:19;2.90;;;0.80;;
69305;SDS011;56427;51.580;4.656;2023-02-26T07:58:45;1.70;;;0.60;;
69305;SDS011;56427;51.580;4.656;2023-02-26T08:01:10;4.13;;;1.33;;
69305;SDS011;56427;51.580;4.656;2023-02-26T08:03:36;6.30;;;0.87;;
69305;SDS011;56427;51.580;4.656;2023-02-26T08:06:01;3.27;;;0.70;;
69305;SDS011;56427;51.580;4.656;2023-02-26T08:08:27;3.85;;;1.08;;
69305;SDS011;56427;51.580;4.656;2023-02-26T08:10:53;4.30;;;0.67;;
69305;SDS011;56427;51.580;4.656;2023-02-26T08:13:18;3.65;;;0.88;;
69305;SDS011;56427;51.580;4.656;2023-02-26T08:15:46;4.28;;;0.60;;
69305;SDS011;56427;51.580;4.656;2023-02-26T08:18:12;4.47;;;0.90;;
69305;SDS011;56427;51.580;4.656;2023-02-26T08:20:37;4.68;;;1.02;;
69305;SDS011;56427;51.580;4.656;2023-02-26T08:23:02;2.50;;;0.60;;
69305;SDS011;56427;51.580;4.656;2023-02-26T08:25:28;4.43;;;0.90;;
69305;SDS011;56427;51.580;4.656;2023-02-26T08:27:53;2.77;;;1.00;;
69305;SDS011;56427;51.580;4.656;2023-02-26T08:30:22;4.10;;;0.82;;
69305;SDS011;56427;51.580;4.656;2023-02-26T08:32:48;3.72;;;0.90;;
69305;SDS011;56427;51.580;4.656;2023-02-26T08:35:16;2.80;;;0.80;;
69305;SDS011;56427;51.580;4.656;2023-02-26T08:37:42;5.88;;;1.20;;
69305;SDS011;56427;51.580;4.656;2023-02-26T08:40:08;6.37;;;0.80;;
69305;SDS011;56427;51.580;4.656;2023-02-26T08:42:35;3.10;;;0.80;;
69305;SDS011;56427;51.580;4.656;2023-02-26T08:45:00;4.32;;;0.80;;
69305;SDS011;56427;51.580;4.656;2023-02-26T08:47:26;3.03;;;0.90;;
69305;SDS011;56427;51.580;4.656;2023-02-26T08:49:51;3.90;;;1.10;;
69305;SDS011;56427;51.580;4.656;2023-02-26T08:52:17;3.75;;;1.00;;
69305;SDS011;56427;51.580;4.656;2023-02-26T08:54:42;35.10;;;2.30;;
69305;SDS011;56427;51.580;4.656;2023-02-26T08:57:08;3.92;;;1.05;;
69305;SDS011;56427;51.580;4.656;2023-02-26T08:59:36;5.07;;;1.20;;
69305;SDS011;56427;51.580;4.656;2023-02-26T09:02:02;3.73;;;0.73;;
69305;SDS011;56427;51.580;4.656;2023-02-26T09:04:27;2.75;;;0.70;;
69305;SDS011;56427;51.580;4.656;2023-02-26T09:06:52;5.20;;;2.03;;
69305;SDS011;56427;51.580;4.656;2023-02-26T09:09:18;4.90;;;1.05;;
69305;SDS011;56427;51.580;4.656;2023-02-26T09:11:44;9.77;;;1.60;;
69305;SDS011;56427;51.580;4.656;2023-02-26T09:14:09;4.30;;;0.90;;
69305;SDS011;56427;51.580;4.656;2023-02-26T09:16:35;5.05;;;1.15;;
69305;SDS011;56427;51.580;4.656;2023-02-26T09:19:01;3.30;;;0.80;;
69305;SDS011;56427;51.580;4.656;2023-02-26T09:21:27;2.05;;;0.60;;
69305;SDS011;56427;51.580;4.656;2023-02-26T09:23:53;2.37;;;0.90;;
69305;SDS011;56427;51.580;4.656;2023-02-26T09:26:18;3.33;;;0.80;;
69305;SDS011;56427;51.580;4.656;2023-02-26T09:28:44;5.43;;;0.80;;
69305;SDS011;56427;51.580;4.656;2023-02-26T09:31:09;6.43;;;0.87;;
69305;SDS011;56427;51.580;4.656;2023-02-26T09:33:34;4.17;;;1.23;;
69305;SDS011;56427;51.580;4.656;2023-02-26T09:36:00;4.17;;;1.03;;
69305;SDS011;56427;51.580;4.656;2023-02-26T09:38:26;2.50;;;0.73;;
69305;SDS011;56427;51.580;4.656;2023-02-26T09:46:29;3.22;;;0.63;;
69305;SDS011;56427;51.580;4.656;2023-02-26T09:52:15;4.70;;;0.90;;
69305;SDS011;56427;51.580;4.656;2023-02-26T09:57:34;3.08;;;0.90;;
69305;SDS011;56427;51.580;4.656;2023-02-26T10:00:40;4.28;;;0.77;;
69305;SDS011;56427;51.580;4.656;2023-02-26T10:03:26;2.50;;;0.90;;
69305;SDS011;56427;51.580;4.656;2023-02-26T10:06:03;4.70;;;0.97;;
69305;SDS011;56427;51.580;4.656;2023-02-26T10:11:37;2.33;;;0.90;;
69305;SDS011;56427;51.580;4.656;2023-02-26T10:14:27;2.15;;;0.60;;
69305;SDS011;56427;51.580;4.656;2023-02-26T10:16:59;2.80;;;0.90;;
69305;SDS011;56427;51.580;4.656;2023-02-26T10:19:31;1.70;;;0.60;;
69305;SDS011;56427;51.580;4.656;2023-02-26T10:24:51;1.52;;;0.57;;
69305;SDS011;56427;51.580;4.656;2023-02-26T10:27:34;5.85;;;0.70;;
69305;SDS011;56427;51.580;4.656;2023-02-26T10:36:22;2.58;;;0.70;;
69305;SDS011;56427;51.580;4.656;2023-02-26T10:38:54;4.28;;;0.90;;
69305;SDS011;56427;51.580;4.656;2023-02-26T10:41:41;5.15;;;0.80;;
69305;SDS011;56427;51.580;4.656;2023-02-26T10:44:27;3.17;;;0.70;;
69305;SDS011;56427;51.580;4.656;2023-02-26T10:49:37;11.85;;;0.80;;
69305;SDS011;56427;51.580;4.656;2023-02-26T10:52:16;1.85;;;0.70;;
69305;SDS011;56427;51.580;4.656;2023-02-26T10:57:55;4.25;;;0.68;;
69305;SDS011;56427;51.580;4.656;2023-02-26T11:00:27;1.27;;;0.50;;
69305;SDS011;56427;51.580;4.656;2023-02-26T11:02:53;5.13;;;0.90;;
69305;SDS011;56427;51.580;4.656;2023-02-26T11:05:22;4.70;;;0.82;;
69305;SDS011;56427;51.580;4.656;2023-02-26T11:08:02;2.15;;;0.70;;
69305;SDS011;56427;51.580;4.656;2023-02-26T11:10:40;2.92;;;0.95;;
69305;SDS011;56427;51.580;4.656;2023-02-26T11:13:11;1.80;;;0.70;;
69305;SDS011;56427;51.580;4.656;2023-02-26T11:15:37;8.17;;;0.83;;
69305;SDS011;56427;51.580;4.656;2023-02-26T11:18:03;2.35;;;0.90;;
69305;SDS011;56427;51.580;4.656;2023-02-26T11:20:38;3.03;;;0.60;;
69305;SDS011;56427;51.580;4.656;2023-02-26T11:23:10;3.75;;;0.85;;
69305;SDS011;56427;51.580;4.656;2023-02-26T11:25:37;3.88;;;0.73;;
69305;SDS011;56427;51.580;4.656;2023-02-26T11:28:05;2.88;;;0.73;;
69305;SDS011;56427;51.580;4.656;2023-02-26T11:30:35;3.07;;;0.70;;
69305;SDS011;56427;51.580;4.656;2023-02-26T11:33:16;1.30;;;0.45;;
69305;SDS011;56427;51.580;4.656;2023-02-26T11:35:45;2.83;;;0.60;;
69305;SDS011;56427;51.580;4.656;2023-02-26T11:38:14;3.28;;;1.00;;
69305;SDS011;56427;51.580;4.656;2023-02-26T11:40:45;3.33;;;0.70;;
69305;SDS011;56427;51.580;4.656;2023-02-26T11:43:19;3.80;;;0.60;;
69305;SDS011;56427;51.580;4.656;2023-02-26T11:45:48;2.20;;;0.45;;
69305;SDS011;56427;51.580;4.656;2023-02-26T11:48:22;2.72;;;0.90;;
69305;SDS011;56427;51.580;4.656;2023-02-26T11:51:03;2.78;;;0.80;;
69305;SDS011;56427;51.580;4.656;2023-02-26T11:53:31;4.80;;;0.80;;
69305;SDS011;56427;51.580;4.656;2023-02-26T11:56:00;3.20;;;0.68;;
69305;SDS011;56427;51.580;4.656;2023-02-26T11:58:33;3.08;;;0.80;;
69305;SDS011;56427;51.580;4.656;2023-02-26T12:01:02;3.22;;;1.00;;
69305;SDS011;56427;51.580;4.656;2023-02-26T12:03:31;3.20;;;0.70;;
69305;SDS011;56427;51.580;4.656;2023-02-26T12:05:58;2.92;;;0.65;;
69305;SDS011;56427;51.580;4.656;2023-02-26T12:08:30;3.08;;;0.73;;
69305;SDS011;56427;51.580;4.656;2023-02-26T12:11:15;2.63;;;0.80;;
69305;SDS011;56427;51.580;4.656;2023-02-26T12:35:56;2.93;;;0.60;;
69305;SDS011;56427;51.580;4.656;2023-02-26T12:47:20;2.53;;;0.80;;
69305;SDS011;56427;51.580;4.656;2023-02-26T12:49:53;2.47;;;0.55;;
69305;SDS011;56427;51.580;4.656;2023-02-26T12:52:37;3.45;;;0.70;;
69305;SDS011;56427;51.580;4.656;2023-02-26T13:00:18;5.50;;;1.00;;
69305;SDS011;56427;51.580;4.656;2023-02-26T13:06:12;3.08;;;0.70;;
69305;SDS011;56427;51.580;4.656;2023-02-26T13:08:56;2.97;;;1.33;;
69305;SDS011;56427;51.580;4.656;2023-02-26T13:11:31;2.20;;;0.70;;
69305;SDS011;56427;51.580;4.656;2023-02-26T13:19:50;3.83;;;0.80;;
69305;SDS011;56427;51.580;4.656;2023-02-26T13:22:20;3.47;;;0.60;;
69305;SDS011;56427;51.580;4.656;2023-02-26T13:25:26;3.17;;;0.88;;
69305;SDS011;56427;51.580;4.656;2023-02-26T13:28:13;2.53;;;0.80;;
69305;SDS011;56427;51.580;4.656;2023-02-26T13:30:48;1.58;;;0.60;;
69305;SDS011;56427;51.580;4.656;2023-02-26T13:33:19;3.70;;;0.90;;
69305;SDS011;56427;51.580;4.656;2023-02-26T13:35:48;2.37;;;0.70;;
69305;SDS011;56427;51.580;4.656;2023-02-26T13:38:22;2.08;;;0.80;;
69305;SDS011;56427;51.580;4.656;2023-02-26T13:51:51;2.20;;;0.50;;
69305;SDS011;56427;51.580;4.656;2023-02-26T13:56:48;2.97;;;0.80;;
69305;SDS011;56427;51.580;4.656;2023-02-26T14:11:46;1.25;;;0.50;;
69305;SDS011;56427;51.580;4.656;2023-02-26T14:14:29;4.60;;;1.80;;
69305;SDS011;56427;51.580;4.656;2023-02-26T14:19:32;1.85;;;0.70;;
69305;SDS011;56427;51.580;4.656;2023-02-26T14:22:01;5.90;;;0.85;;
69305;SDS011;56427;51.580;4.656;2023-02-26T14:27:42;3.78;;;1.17;;
69305;SDS011;56427;51.580;4.656;2023-02-26T14:37:54;2.72;;;0.80;;
69305;SDS011;56427;51.580;4.656;2023-02-26T14:40:39;2.30;;;0.85;;
69305;SDS011;56427;51.580;4.656;2023-02-26T14:43:13;1.98;;;0.70;;
69305;SDS011;56427;51.580;4.656;2023-02-26T14:45:43;3.30;;;0.60;;
69305;SDS011;56427;51.580;4.656;2023-02-26T14:48:14;5.60;;;1.20;;
69305;SDS011;56427;51.580;4.656;2023-02-26T14:57:03;3.15;;;0.75;;
69305;SDS011;56427;51.580;4.656;2023-02-26T14:59:44;2.10;;;0.75;;
69305;SDS011;56427;51.580;4.656;2023-02-26T15:05:39;7.80;;;1.00;;
69305;SDS011;56427;51.580;4.656;2023-02-26T15:11:01;5.22;;;0.70;;
69305;SDS011;56427;51.580;4.656;2023-02-26T15:22:15;3.15;;;1.05;;
69305;SDS011;56427;51.580;4.656;2023-02-26T15:24:44;3.03;;;1.08;;
69305;SDS011;56427;51.580;4.656;2023-02-26T15:27:12;1.63;;;0.60;;
69305;SDS011;56427;51.580;4.656;2023-02-26T15:29:41;2.72;;;0.70;;
69305;SDS011;56427;51.580;4.656;2023-02-26T15:32:24;2.17;;;0.85;;
69305;SDS011;56427;51.580;4.656;2023-02-26T15:34:58;3.43;;;0.77;;
69305;SDS011;56427;51.580;4.656;2023-02-26T15:37:27;3.17;;;0.95;;
69305;SDS011;56427;51.580;4.656;2023-02-26T15:39:59;2.67;;;1.00;;
69305;SDS011;56427;51.580;4.656;2023-02-26T15:42:33;1.50;;;0.55;;
69305;SDS011;56427;51.580;4.656;2023-02-26T15:45:02;4.20;;;1.05;;
69305;SDS011;56427;51.580;4.656;2023-02-26T15:47:34;3.73;;;1.10;;
69305;SDS011;56427;51.580;4.656;2023-02-26T15:50:00;2.22;;;0.60;;
69305;SDS011;56427;51.580;4.656;2023-02-26T15:52:28;1.60;;;0.70;;
69305;SDS011;56427;51.580;4.656;2023-02-26T15:54:58;2.10;;;0.55;;
69305;SDS011;56427;51.580;4.656;2023-02-26T15:57:28;3.15;;;0.70;;
69305;SDS011;56427;51.580;4.656;2023-02-26T16:02:41;2.65;;;0.70;;
69305;SDS011;56427;51.580;4.656;2023-02-26T16:05:10;5.20;;;1.20;;
69305;SDS011;56427;51.580;4.656;2023-02-26T16:07:38;4.00;;;1.08;;
69305;SDS011;56427;51.580;4.656;2023-02-26T16:10:53;2.97;;;0.95;;
69305;SDS011;56427;51.580;4.656;2023-02-26T16:13:05;3.92;;;0.88;;
69305;SDS011;56427;51.580;4.656;2023-02-26T16:15:36;6.22;;;0.90;;
69305;SDS011;56427;51.580;4.656;2023-02-26T16:18:14;3.40;;;0.60;;
69305;SDS011;56427;51.580;4.656;2023-02-26T16:20:46;5.47;;;1.38;;
69305;SDS011;56427;51.580;4.656;2023-02-26T16:23:45;4.05;;;1.05;;
69305;SDS011;56427;51.580;4.656;2023-02-26T16:26:20;3.95;;;1.02;;
69305;SDS011;56427;51.580;4.656;2023-02-26T16:28:52;4.40;;;1.25;;
69305;SDS011;56427;51.580;4.656;2023-02-26T16:31:25;3.13;;;0.80;;
69305;SDS011;56427;51.580;4.656;2023-02-26T16:34:02;3.03;;;0.90;;
69305;SDS011;56427;51.580;4.656;2023-02-26T16:36:31;2.80;;;0.88;;
69305;SDS011;56427;51.580;4.656;2023-02-26T16:44:39;2.28;;;0.77;;
69305;SDS011;56427;51.580;4.656;2023-02-26T16:47:13;3.30;;;0.77;;
69305;SDS011;56427;51.580;4.656;2023-02-26T16:49:54;4.18;;;0.73;;
69305;SDS011;56427;51.580;4.656;2023-02-26T16:52:43;2.85;;;0.90;;
69305;SDS011;56427;51.580;4.656;2023-02-26T16:55:34;4.30;;;1.10;;
69305;SDS011;56427;51.580;4.656;2023-02-26T16:58:23;2.65;;;1.10;;
69305;SDS011;56427;51.580;4.656;2023-02-26T17:01:05;2.40;;;0.57;;
69305;SDS011;56427;51.580;4.656;2023-02-26T17:03:38;2.78;;;0.98;;
69305;SDS011;56427;51.580;4.656;2023-02-26T17:06:08;3.85;;;0.90;;
69305;SDS011;56427;51.580;4.656;2023-02-26T17:08:45;4.97;;;1.40;;
69305;SDS011;56427;51.580;4.656;2023-02-26T17:11:20;3.13;;;1.00;;
69305;SDS011;56427;51.580;4.656;2023-02-26T17:14:05;4.70;;;1.88;;
69305;SDS011;56427;51.580;4.656;2023-02-26T17:16:53;2.97;;;1.25;;
69305;SDS011;56427;51.580;4.656;2023-02-26T17:19:36;4.60;;;1.98;;
69305;SDS011;56427;51.580;4.656;2023-02-26T17:22:14;4.20;;;1.20;;
69305;SDS011;56427;51.580;4.656;2023-02-26T17:25:16;4.97;;;1.30;;
69305;SDS011;56427;51.580;4.656;2023-02-26T17:28:05;3.92;;;1.15;;
69305;SDS011;56427;51.580;4.656;2023-02-26T17:30:57;3.70;;;1.02;;
69305;SDS011;56427;51.580;4.656;2023-02-26T17:33:45;6.18;;;1.75;;
69305;SDS011;56427;51.580;4.656;2023-02-26T17:36:22;7.20;;;1.98;;
69305;SDS011;56427;51.580;4.656;2023-02-26T17:38:50;3.95;;;1.00;;
69305;SDS011;56427;51.580;4.656;2023-02-26T17:41:17;3.25;;;1.20;;
69305;SDS011;56427;51.580;4.656;2023-02-26T17:43:42;4.90;;;1.10;;
69305;SDS011;56427;51.580;4.656;2023-02-26T17:46:09;5.23;;;1.50;;
69305;SDS011;56427;51.580;4.656;2023-02-26T17:48:36;4.95;;;1.40;;
69305;SDS011;56427;51.580;4.656;2023-02-26T17:51:01;5.00;;;1.40;;
69305;SDS011;56427;51.580;4.656;2023-02-26T17:53:27;5.97;;;1.60;;
69305;SDS011;56427;51.580;4.656;2023-02-26T17:55:57;6.22;;;1.10;;
69305;SDS011;56427;51.580;4.656;2023-02-26T17:58:27;21.02;;;6.82;;
69305;SDS011;56427;51.580;4.656;2023-02-26T18:00:57;4.03;;;1.33;;
69305;SDS011;56427;51.580;4.656;2023-02-26T18:03:23;6.00;;;1.75;;
69305;SDS011;56427;51.580;4.656;2023-02-26T18:05:49;3.77;;;1.00;;
69305;SDS011;56427;51.580;4.656;2023-02-26T18:10:50;3.88;;;1.23;;
69305;SDS011;56427;51.580;4.656;2023-02-26T18:13:16;9.32;;;1.63;;
69305;SDS011;56427;51.580;4.656;2023-02-26T18:15:42;5.93;;;2.10;;
69305;SDS011;56427;51.580;4.656;2023-02-26T18:18:08;2.57;;;1.07;;